sensor_id;sensor_type;location;lat;lon;timestamp;P1;durP1;ratioP1;P2;durP2;ratioP2
64682;SDS011;51107;47.652;19.016;2022-11-20T00:01:52;3.70;;;2.17;;
64682;SDS011;51107;47.652;19.016;2022-11-20T00:04:21;2.30;;;1.80;;
64682;SDS011;51107;47.652;19.016;2022-11-20T00:06:49;3.20;;;2.22;;
64682;SDS011;51107;47.652;19.016;2022-11-20T00:09:17;4.10;;;2.10;;
64682;SDS011;51107;47.652;19.016;2022-11-20T00:11:46;5.10;;;2.40;;
64682;SDS011;51107;47.652;19.016;2022-11-20T00:14:14;2.65;;;1.62;;
64682;SDS011;51107;47.652;19.016;2022-11-20T00:16:42;6.45;;;2.33;;
64682;SDS011;51107;47.652;19.016;2022-11-20T00:19:11;4.22;;;2.30;;
64682;SDS011;51107;47.652;19.016;2022-11-20T00:21:39;3.40;;;2.45;;
64682;SDS011;51107;47.652;19.016;2022-11-20T00:24:07;7.53;;;1.55;;
64682;SDS011;51107;47.652;19.016;2022-11-20T00:26:36;2.28;;;1.48;;
64682;SDS011;51107;47.652;19.016;2022-11-20T00:29:04;4.18;;;2.72;;
64682;SDS011;51107;47.652;19.016;2022-11-20T00:31:34;4.07;;;2.70;;
64682;SDS011;51107;47.652;19.016;2022-11-20T00:34:03;4.37;;;2.62;;
64682;SDS011;51107;47.652;19.016;2022-11-20T00:36:32;3.70;;;2.22;;
64682;SDS011;51107;47.652;19.016;2022-11-20T00:39:01;3.58;;;2.60;;
64682;SDS011;51107;47.652;19.016;2022-11-20T00:41:30;9.43;;;3.08;;
64682;SDS011;51107;47.652;19.016;2022-11-20T00:43:58;4.78;;;2.83;;
64682;SDS011;51107;47.652;19.016;2022-11-20T00:46:26;5.75;;;2.47;;
64682;SDS011;51107;47.652;19.016;2022-11-20T00:48:56;7.55;;;3.45;;
64682;SDS011;51107;47.652;19.016;2022-11-20T00:51:25;5.68;;;3.00;;
64682;SDS011;51107;47.652;19.016;2022-11-20T00:53:55;5.12;;;2.72;;
64682;SDS011;51107;47.652;19.016;2022-11-20T00:56:25;6.00;;;3.03;;
64682;SDS011;51107;47.652;19.016;2022-11-20T00:58:53;6.60;;;3.67;;
64682;SDS011;51107;47.652;19.016;2022-11-20T01:01:22;4.93;;;2.67;;
64682;SDS011;51107;47.652;19.016;2022-11-20T01:03:53;7.45;;;3.20;;
64682;SDS011;51107;47.652;19.016;2022-11-20T01:06:29;8.90;;;3.55;;
64682;SDS011;51107;47.652;19.016;2022-11-20T01:09:01;8.82;;;3.85;;
64682;SDS011;51107;47.652;19.016;2022-11-20T01:11:35;15.43;;;6.37;;
64682;SDS011;51107;47.652;19.016;2022-11-20T01:14:08;10.13;;;4.82;;
64682;SDS011;51107;47.652;19.016;2022-11-20T01:16:40;8.98;;;5.53;;
64682;SDS011;51107;47.652;19.016;2022-11-20T01:19:11;6.47;;;3.60;;
64682;SDS011;51107;47.652;19.016;2022-11-20T01:21:45;9.88;;;3.45;;
64682;SDS011;51107;47.652;19.016;2022-11-20T01:24:16;6.28;;;3.00;;
64682;SDS011;51107;47.652;19.016;2022-11-20T01:26:47;4.57;;;2.85;;
64682;SDS011;51107;47.652;19.016;2022-11-20T01:29:19;6.32;;;3.70;;
64682;SDS011;51107;47.652;19.016;2022-11-20T01:31:52;7.12;;;2.90;;
64682;SDS011;51107;47.652;19.016;2022-11-20T01:34:21;2.42;;;2.17;;
64682;SDS011;51107;47.652;19.016;2022-11-20T01:36:50;7.72;;;3.12;;
64682;SDS011;51107;47.652;19.016;2022-11-20T01:39:22;3.15;;;1.85;;
64682;SDS011;51107;47.652;19.016;2022-11-20T01:41:52;10.32;;;4.70;;
64682;SDS011;51107;47.652;19.016;2022-11-20T01:44:54;7.90;;;5.20;;
64682;SDS011;51107;47.652;19.016;2022-11-20T01:47:45;9.93;;;4.60;;
64682;SDS011;51107;47.652;19.016;2022-11-20T01:50:24;5.05;;;2.95;;
64682;SDS011;51107;47.652;19.016;2022-11-20T01:53:00;6.95;;;2.65;;
64682;SDS011;51107;47.652;19.016;2022-11-20T01:55:46;4.97;;;2.05;;
64682;SDS011;51107;47.652;19.016;2022-11-20T01:58:22;3.10;;;2.05;;
64682;SDS011;51107;47.652;19.016;2022-11-20T02:00:55;4.78;;;2.70;;
64682;SDS011;51107;47.652;19.016;2022-11-20T02:03:24;5.20;;;2.20;;
64682;SDS011;51107;47.652;19.016;2022-11-20T02:08:40;5.80;;;3.12;;
64682;SDS011;51107;47.652;19.016;2022-11-20T02:11:08;6.25;;;3.08;;
64682;SDS011;51107;47.652;19.016;2022-11-20T02:13:36;2.70;;;2.47;;
64682;SDS011;51107;47.652;19.016;2022-11-20T02:16:13;6.87;;;3.37;;
64682;SDS011;51107;47.652;19.016;2022-11-20T02:18:42;6.68;;;2.20;;
64682;SDS011;51107;47.652;19.016;2022-11-20T02:23:59;4.55;;;2.95;;
64682;SDS011;51107;47.652;19.016;2022-11-20T02:26:31;9.82;;;3.35;;
64682;SDS011;51107;47.652;19.016;2022-11-20T02:29:04;11.35;;;4.03;;
64682;SDS011;51107;47.652;19.016;2022-11-20T02:31:37;7.72;;;2.10;;
64682;SDS011;51107;47.652;19.016;2022-11-20T02:34:08;11.40;;;3.75;;
64682;SDS011;51107;47.652;19.016;2022-11-20T02:36:36;2.95;;;2.55;;
64682;SDS011;51107;47.652;19.016;2022-11-20T02:39:07;9.13;;;3.30;;
64682;SDS011;51107;47.652;19.016;2022-11-20T02:41:40;2.50;;;2.30;;
64682;SDS011;51107;47.652;19.016;2022-11-20T02:44:08;5.25;;;2.90;;
64682;SDS011;51107;47.652;19.016;2022-11-20T02:46:36;7.53;;;3.17;;
64682;SDS011;51107;47.652;19.016;2022-11-20T02:49:05;4.05;;;2.53;;
64682;SDS011;51107;47.652;19.016;2022-11-20T02:51:33;7.80;;;2.72;;
64682;SDS011;51107;47.652;19.016;2022-11-20T02:54:01;7.80;;;2.75;;
64682;SDS011;51107;47.652;19.016;2022-11-20T02:56:30;4.68;;;2.78;;
64682;SDS011;51107;47.652;19.016;2022-11-20T02:58:59;5.95;;;3.22;;
64682;SDS011;51107;47.652;19.016;2022-11-20T03:01:28;7.62;;;2.65;;
64682;SDS011;51107;47.652;19.016;2022-11-20T03:03:56;6.90;;;3.45;;
64682;SDS011;51107;47.652;19.016;2022-11-20T03:06:24;3.67;;;2.83;;
64682;SDS011;51107;47.652;19.016;2022-11-20T03:08:53;14.30;;;3.05;;
64682;SDS011;51107;47.652;19.016;2022-11-20T03:11:21;7.68;;;3.47;;
64682;SDS011;51107;47.652;19.016;2022-11-20T03:13:50;3.67;;;2.47;;
64682;SDS011;51107;47.652;19.016;2022-11-20T03:16:19;9.35;;;3.08;;
64682;SDS011;51107;47.652;19.016;2022-11-20T03:18:49;4.50;;;3.75;;
64682;SDS011;51107;47.652;19.016;2022-11-20T03:21:19;4.85;;;3.05;;
64682;SDS011;51107;47.652;19.016;2022-11-20T03:23:47;4.07;;;2.53;;
64682;SDS011;51107;47.652;19.016;2022-11-20T03:26:20;4.22;;;2.62;;
64682;SDS011;51107;47.652;19.016;2022-11-20T03:28:55;9.73;;;4.05;;
64682;SDS011;51107;47.652;19.016;2022-11-20T03:31:27;6.78;;;3.12;;
64682;SDS011;51107;47.652;19.016;2022-11-20T03:33:57;7.35;;;3.95;;
64682;SDS011;51107;47.652;19.016;2022-11-20T03:36:27;6.00;;;2.78;;
64682;SDS011;51107;47.652;19.016;2022-11-20T03:38:55;7.35;;;3.37;;
64682;SDS011;51107;47.652;19.016;2022-11-20T03:41:26;4.15;;;2.95;;
64682;SDS011;51107;47.652;19.016;2022-11-20T03:43:57;4.40;;;3.22;;
64682;SDS011;51107;47.652;19.016;2022-11-20T03:46:27;4.07;;;2.62;;
64682;SDS011;51107;47.652;19.016;2022-11-20T03:48:56;7.60;;;3.85;;
64682;SDS011;51107;47.652;19.016;2022-11-20T03:51:25;4.75;;;3.30;;
64682;SDS011;51107;47.652;19.016;2022-11-20T03:53:59;6.60;;;3.05;;
64682;SDS011;51107;47.652;19.016;2022-11-20T03:56:31;4.05;;;3.03;;
64682;SDS011;51107;47.652;19.016;2022-11-20T03:59:01;5.05;;;2.50;;
64682;SDS011;51107;47.652;19.016;2022-11-20T04:01:31;6.15;;;2.70;;
64682;SDS011;51107;47.652;19.016;2022-11-20T04:04:01;7.45;;;2.10;;
64682;SDS011;51107;47.652;19.016;2022-11-20T04:06:30;12.52;;;3.42;;
64682;SDS011;51107;47.652;19.016;2022-11-20T04:09:02;4.45;;;2.65;;
64682;SDS011;51107;47.652;19.016;2022-11-20T04:11:32;9.38;;;2.80;;
64682;SDS011;51107;47.652;19.016;2022-11-20T04:14:06;3.90;;;2.60;;
64682;SDS011;51107;47.652;19.016;2022-11-20T04:16:40;3.45;;;2.55;;
64682;SDS011;51107;47.652;19.016;2022-11-20T04:19:10;4.57;;;2.87;;
64682;SDS011;51107;47.652;19.016;2022-11-20T04:21:39;5.68;;;2.95;;
64682;SDS011;51107;47.652;19.016;2022-11-20T04:24:09;3.92;;;2.15;;
64682;SDS011;51107;47.652;19.016;2022-11-20T04:26:38;8.80;;;3.62;;
64682;SDS011;51107;47.652;19.016;2022-11-20T04:29:09;5.05;;;2.92;;
64682;SDS011;51107;47.652;19.016;2022-11-20T04:31:39;3.08;;;2.60;;
64682;SDS011;51107;47.652;19.016;2022-11-20T04:34:10;5.10;;;3.37;;
64682;SDS011;51107;47.652;19.016;2022-11-20T04:36:39;8.73;;;3.97;;
64682;SDS011;51107;47.652;19.016;2022-11-20T04:39:11;4.37;;;3.60;;
64682;SDS011;51107;47.652;19.016;2022-11-20T04:41:42;7.70;;;2.87;;
64682;SDS011;51107;47.652;19.016;2022-11-20T04:44:10;3.53;;;2.45;;
64682;SDS011;51107;47.652;19.016;2022-11-20T04:46:40;4.30;;;2.42;;
64682;SDS011;51107;47.652;19.016;2022-11-20T04:49:10;9.38;;;2.72;;
64682;SDS011;51107;47.652;19.016;2022-11-20T04:51:39;8.38;;;3.03;;
64682;SDS011;51107;47.652;19.016;2022-11-20T04:54:08;4.15;;;2.78;;
64682;SDS011;51107;47.652;19.016;2022-11-20T04:56:39;6.28;;;3.37;;
64682;SDS011;51107;47.652;19.016;2022-11-20T04:59:07;6.40;;;3.17;;
64682;SDS011;51107;47.652;19.016;2022-11-20T05:01:35;5.85;;;2.83;;
64682;SDS011;51107;47.652;19.016;2022-11-20T05:04:04;4.82;;;2.80;;
64682;SDS011;51107;47.652;19.016;2022-11-20T05:06:33;11.55;;;3.50;;
64682;SDS011;51107;47.652;19.016;2022-11-20T05:09:02;3.05;;;1.98;;
64682;SDS011;51107;47.652;19.016;2022-11-20T05:11:31;4.45;;;2.33;;
64682;SDS011;51107;47.652;19.016;2022-11-20T05:13:59;4.93;;;2.80;;
64682;SDS011;51107;47.652;19.016;2022-11-20T05:16:41;3.85;;;2.47;;
64682;SDS011;51107;47.652;19.016;2022-11-20T05:19:09;5.93;;;2.80;;
64682;SDS011;51107;47.652;19.016;2022-11-20T05:21:37;4.03;;;2.80;;
64682;SDS011;51107;47.652;19.016;2022-11-20T05:24:06;3.65;;;3.28;;
64682;SDS011;51107;47.652;19.016;2022-11-20T05:26:39;4.85;;;3.17;;
64682;SDS011;51107;47.652;19.016;2022-11-20T05:29:09;3.87;;;2.67;;
64682;SDS011;51107;47.652;19.016;2022-11-20T05:31:39;8.50;;;2.83;;
64682;SDS011;51107;47.652;19.016;2022-11-20T05:34:08;4.78;;;2.90;;
64682;SDS011;51107;47.652;19.016;2022-11-20T05:36:37;5.03;;;2.22;;
64682;SDS011;51107;47.652;19.016;2022-11-20T05:39:05;5.85;;;2.83;;
64682;SDS011;51107;47.652;19.016;2022-11-20T05:41:33;6.35;;;3.03;;
64682;SDS011;51107;47.652;19.016;2022-11-20T05:44:01;6.57;;;3.08;;
64682;SDS011;51107;47.652;19.016;2022-11-20T05:46:30;9.35;;;5.50;;
64682;SDS011;51107;47.652;19.016;2022-11-20T05:48:58;19.87;;;8.45;;
64682;SDS011;51107;47.652;19.016;2022-11-20T05:51:26;8.95;;;3.70;;
64682;SDS011;51107;47.652;19.016;2022-11-20T05:53:58;6.45;;;3.25;;
64682;SDS011;51107;47.652;19.016;2022-11-20T05:56:26;2.72;;;2.35;;
64682;SDS011;51107;47.652;19.016;2022-11-20T05:58:55;5.00;;;2.50;;
64682;SDS011;51107;47.652;19.016;2022-11-20T06:01:25;2.53;;;2.10;;
64682;SDS011;51107;47.652;19.016;2022-11-20T06:03:54;4.03;;;2.72;;
64682;SDS011;51107;47.652;19.016;2022-11-20T06:06:22;3.67;;;2.12;;
64682;SDS011;51107;47.652;19.016;2022-11-20T06:08:51;6.37;;;2.95;;
64682;SDS011;51107;47.652;19.016;2022-11-20T06:11:19;4.32;;;2.78;;
64682;SDS011;51107;47.652;19.016;2022-11-20T06:13:47;4.05;;;2.30;;
64682;SDS011;51107;47.652;19.016;2022-11-20T06:16:16;5.75;;;2.28;;
64682;SDS011;51107;47.652;19.016;2022-11-20T06:18:47;6.00;;;2.90;;
64682;SDS011;51107;47.652;19.016;2022-11-20T06:21:16;15.50;;;4.22;;
64682;SDS011;51107;47.652;19.016;2022-11-20T06:23:46;4.20;;;3.75;;
64682;SDS011;51107;47.652;19.016;2022-11-20T06:26:16;7.57;;;4.68;;
64682;SDS011;51107;47.652;19.016;2022-11-20T06:28:46;11.60;;;3.97;;
64682;SDS011;51107;47.652;19.016;2022-11-20T06:31:15;8.15;;;3.62;;
64682;SDS011;51107;47.652;19.016;2022-11-20T06:33:45;10.88;;;5.70;;
64682;SDS011;51107;47.652;19.016;2022-11-20T06:36:13;5.45;;;3.78;;
64682;SDS011;51107;47.652;19.016;2022-11-20T06:38:43;3.47;;;2.70;;
64682;SDS011;51107;47.652;19.016;2022-11-20T06:41:18;9.60;;;4.72;;
64682;SDS011;51107;47.652;19.016;2022-11-20T06:43:48;5.22;;;2.97;;
64682;SDS011;51107;47.652;19.016;2022-11-20T06:46:17;10.60;;;3.90;;
64682;SDS011;51107;47.652;19.016;2022-11-20T06:48:47;7.97;;;3.72;;
64682;SDS011;51107;47.652;19.016;2022-11-20T06:51:16;5.30;;;2.97;;
64682;SDS011;51107;47.652;19.016;2022-11-20T06:53:45;7.25;;;3.40;;
64682;SDS011;51107;47.652;19.016;2022-11-20T06:56:13;4.68;;;2.58;;
64682;SDS011;51107;47.652;19.016;2022-11-20T06:58:42;8.50;;;3.30;;
64682;SDS011;51107;47.652;19.016;2022-11-20T07:01:11;4.10;;;2.92;;
64682;SDS011;51107;47.652;19.016;2022-11-20T07:03:41;4.78;;;2.90;;
64682;SDS011;51107;47.652;19.016;2022-11-20T07:06:10;8.98;;;2.65;;
64682;SDS011;51107;47.652;19.016;2022-11-20T07:08:38;7.47;;;2.58;;
64682;SDS011;51107;47.652;19.016;2022-11-20T07:11:07;4.10;;;2.45;;
64682;SDS011;51107;47.652;19.016;2022-11-20T07:13:36;5.22;;;2.92;;
64682;SDS011;51107;47.652;19.016;2022-11-20T07:16:05;5.18;;;2.75;;
64682;SDS011;51107;47.652;19.016;2022-11-20T07:18:34;7.10;;;3.30;;
64682;SDS011;51107;47.652;19.016;2022-11-20T07:21:04;5.05;;;3.08;;
64682;SDS011;51107;47.652;19.016;2022-11-20T07:23:34;6.82;;;3.60;;
64682;SDS011;51107;47.652;19.016;2022-11-20T07:26:08;7.10;;;3.47;;
64682;SDS011;51107;47.652;19.016;2022-11-20T07:28:37;9.10;;;4.18;;
64682;SDS011;51107;47.652;19.016;2022-11-20T07:31:06;5.72;;;3.70;;
64682;SDS011;51107;47.652;19.016;2022-11-20T07:33:35;14.75;;;7.07;;
64682;SDS011;51107;47.652;19.016;2022-11-20T07:36:03;18.98;;;5.25;;
64682;SDS011;51107;47.652;19.016;2022-11-20T07:38:32;8.48;;;4.15;;
64682;SDS011;51107;47.652;19.016;2022-11-20T07:41:00;4.37;;;3.17;;
64682;SDS011;51107;47.652;19.016;2022-11-20T07:43:29;6.22;;;3.95;;
64682;SDS011;51107;47.652;19.016;2022-11-20T07:46:00;6.68;;;4.00;;
64682;SDS011;51107;47.652;19.016;2022-11-20T07:48:28;8.32;;;3.80;;
64682;SDS011;51107;47.652;19.016;2022-11-20T07:50:57;7.20;;;4.18;;
64682;SDS011;51107;47.652;19.016;2022-11-20T07:53:26;8.57;;;3.22;;
64682;SDS011;51107;47.652;19.016;2022-11-20T07:55:54;4.22;;;3.12;;
64682;SDS011;51107;47.652;19.016;2022-11-20T07:58:22;6.18;;;2.97;;
64682;SDS011;51107;47.652;19.016;2022-11-20T08:00:50;5.82;;;3.42;;
64682;SDS011;51107;47.652;19.016;2022-11-20T08:03:19;3.83;;;2.42;;
64682;SDS011;51107;47.652;19.016;2022-11-20T08:05:52;9.43;;;3.67;;
64682;SDS011;51107;47.652;19.016;2022-11-20T08:08:20;5.53;;;3.05;;
64682;SDS011;51107;47.652;19.016;2022-11-20T08:10:49;4.30;;;2.67;;
64682;SDS011;51107;47.652;19.016;2022-11-20T08:13:17;5.82;;;2.92;;
64682;SDS011;51107;47.652;19.016;2022-11-20T08:16:04;5.32;;;3.45;;
64682;SDS011;51107;47.652;19.016;2022-11-20T08:18:33;8.15;;;3.60;;
64682;SDS011;51107;47.652;19.016;2022-11-20T08:21:05;6.72;;;3.50;;
64682;SDS011;51107;47.652;19.016;2022-11-20T08:23:33;7.00;;;3.12;;
64682;SDS011;51107;47.652;19.016;2022-11-20T08:26:01;6.07;;;3.90;;
64682;SDS011;51107;47.652;19.016;2022-11-20T08:28:29;3.95;;;2.33;;
64682;SDS011;51107;47.652;19.016;2022-11-20T08:30:59;7.72;;;3.87;;
64682;SDS011;51107;47.652;19.016;2022-11-20T08:33:28;6.78;;;3.28;;
64682;SDS011;51107;47.652;19.016;2022-11-20T08:36:01;4.12;;;2.80;;
64682;SDS011;51107;47.652;19.016;2022-11-20T08:38:31;5.22;;;2.95;;
64682;SDS011;51107;47.652;19.016;2022-11-20T08:41:01;7.90;;;4.43;;
64682;SDS011;51107;47.652;19.016;2022-11-20T08:43:51;6.82;;;3.78;;
64682;SDS011;51107;47.652;19.016;2022-11-20T08:46:24;4.72;;;3.08;;
64682;SDS011;51107;47.652;19.016;2022-11-20T08:48:53;5.82;;;3.67;;
64682;SDS011;51107;47.652;19.016;2022-11-20T08:51:21;6.28;;;4.07;;
64682;SDS011;51107;47.652;19.016;2022-11-20T08:53:50;5.22;;;3.28;;
64682;SDS011;51107;47.652;19.016;2022-11-20T08:56:18;6.68;;;3.53;;
64682;SDS011;51107;47.652;19.016;2022-11-20T08:58:49;4.25;;;2.72;;
64682;SDS011;51107;47.652;19.016;2022-11-20T09:01:39;5.32;;;3.17;;
64682;SDS011;51107;47.652;19.016;2022-11-20T09:04:07;8.38;;;3.60;;
64682;SDS011;51107;47.652;19.016;2022-11-20T09:06:38;9.38;;;4.40;;
64682;SDS011;51107;47.652;19.016;2022-11-20T09:09:06;7.62;;;4.03;;
64682;SDS011;51107;47.652;19.016;2022-11-20T09:11:34;7.07;;;3.42;;
64682;SDS011;51107;47.652;19.016;2022-11-20T09:14:03;11.18;;;4.28;;
64682;SDS011;51107;47.652;19.016;2022-11-20T09:16:32;6.07;;;4.15;;
64682;SDS011;51107;47.652;19.016;2022-11-20T09:19:00;8.93;;;4.75;;
64682;SDS011;51107;47.652;19.016;2022-11-20T09:21:49;8.57;;;4.22;;
64682;SDS011;51107;47.652;19.016;2022-11-20T09:24:22;8.43;;;5.25;;
64682;SDS011;51107;47.652;19.016;2022-11-20T09:26:50;12.37;;;5.47;;
64682;SDS011;51107;47.652;19.016;2022-11-20T09:29:19;16.45;;;6.32;;
64682;SDS011;51107;47.652;19.016;2022-11-20T09:31:47;9.18;;;5.43;;
64682;SDS011;51107;47.652;19.016;2022-11-20T09:34:16;13.25;;;6.35;;
64682;SDS011;51107;47.652;19.016;2022-11-20T09:36:44;8.85;;;5.10;;
64682;SDS011;51107;47.652;19.016;2022-11-20T09:39:12;10.77;;;5.12;;
64682;SDS011;51107;47.652;19.016;2022-11-20T09:55:49;12.05;;;6.82;;
64682;SDS011;51107;47.652;19.016;2022-11-20T09:58:40;13.60;;;6.22;;
64682;SDS011;51107;47.652;19.016;2022-11-20T10:01:21;12.73;;;4.93;;
64682;SDS011;51107;47.652;19.016;2022-11-20T10:04:02;14.75;;;5.03;;
64682;SDS011;51107;47.652;19.016;2022-11-20T10:06:34;12.95;;;5.03;;
64682;SDS011;51107;47.652;19.016;2022-11-20T10:26:00;11.02;;;3.55;;
64682;SDS011;51107;47.652;19.016;2022-11-20T10:28:46;13.93;;;4.00;;
64682;SDS011;51107;47.652;19.016;2022-11-20T10:31:34;7.40;;;3.22;;
64682;SDS011;51107;47.652;19.016;2022-11-20T10:37:46;9.82;;;4.20;;
64682;SDS011;51107;47.652;19.016;2022-11-20T10:43:16;9.82;;;4.85;;
64682;SDS011;51107;47.652;19.016;2022-11-20T10:45:50;4.53;;;3.10;;
64682;SDS011;51107;47.652;19.016;2022-11-20T10:48:26;8.15;;;3.75;;
64682;SDS011;51107;47.652;19.016;2022-11-20T11:00:13;5.53;;;3.65;;
64682;SDS011;51107;47.652;19.016;2022-11-20T11:02:48;8.20;;;4.05;;
64682;SDS011;51107;47.652;19.016;2022-11-20T11:05:33;8.93;;;4.75;;
64682;SDS011;51107;47.652;19.016;2022-11-20T11:08:07;8.05;;;3.40;;
64682;SDS011;51107;47.652;19.016;2022-11-20T11:13:23;4.82;;;3.22;;
64682;SDS011;51107;47.652;19.016;2022-11-20T11:15:53;11.60;;;3.45;;
64682;SDS011;51107;47.652;19.016;2022-11-20T11:20:54;6.45;;;4.40;;
64682;SDS011;51107;47.652;19.016;2022-11-20T11:23:37;16.98;;;4.60;;
64682;SDS011;51107;47.652;19.016;2022-11-20T11:26:20;5.57;;;3.15;;
64682;SDS011;51107;47.652;19.016;2022-11-20T11:28:57;6.65;;;3.42;;
64682;SDS011;51107;47.652;19.016;2022-11-20T11:34:10;6.62;;;3.40;;
64682;SDS011;51107;47.652;19.016;2022-11-20T11:36:41;7.12;;;3.60;;
64682;SDS011;51107;47.652;19.016;2022-11-20T11:39:16;4.05;;;3.10;;
64682;SDS011;51107;47.652;19.016;2022-11-20T11:41:48;13.55;;;4.40;;
64682;SDS011;51107;47.652;19.016;2022-11-20T11:44:17;16.65;;;5.37;;
64682;SDS011;51107;47.652;19.016;2022-11-20T11:47:26;9.43;;;4.22;;
64682;SDS011;51107;47.652;19.016;2022-11-20T11:58:41;9.60;;;3.75;;
64682;SDS011;51107;47.652;19.016;2022-11-20T12:04:36;6.43;;;4.20;;
64682;SDS011;51107;47.652;19.016;2022-11-20T12:07:01;6.60;;;4.05;;
64682;SDS011;51107;47.652;19.016;2022-11-20T12:09:59;9.70;;;4.65;;
64682;SDS011;51107;47.652;19.016;2022-11-20T12:12:30;7.90;;;3.95;;
64682;SDS011;51107;47.652;19.016;2022-11-20T12:15:13;6.40;;;3.40;;
64682;SDS011;51107;47.652;19.016;2022-11-20T12:17:50;10.20;;;3.83;;
64682;SDS011;51107;47.652;19.016;2022-11-20T12:20:19;9.48;;;4.30;;
64682;SDS011;51107;47.652;19.016;2022-11-20T12:22:59;9.98;;;4.18;;
64682;SDS011;51107;47.652;19.016;2022-11-20T12:25:54;10.40;;;4.82;;
64682;SDS011;51107;47.652;19.016;2022-11-20T12:31:18;8.25;;;4.32;;
64682;SDS011;51107;47.652;19.016;2022-11-20T12:39:48;8.68;;;4.30;;
64682;SDS011;51107;47.652;19.016;2022-11-20T12:45:20;6.50;;;4.15;;
64682;SDS011;51107;47.652;19.016;2022-11-20T12:56:41;10.75;;;4.43;;
64682;SDS011;51107;47.652;19.016;2022-11-20T13:16:24;13.52;;;5.47;;
64682;SDS011;51107;47.652;19.016;2022-11-20T13:19:15;11.50;;;5.03;;
64682;SDS011;51107;47.652;19.016;2022-11-20T13:21:46;12.45;;;6.45;;
64682;SDS011;51107;47.652;19.016;2022-11-20T13:24:22;15.80;;;6.85;;
64682;SDS011;51107;47.652;19.016;2022-11-20T13:29:42;24.80;;;10.35;;
64682;SDS011;51107;47.652;19.016;2022-11-20T13:34:54;9.32;;;5.95;;
64682;SDS011;51107;47.652;19.016;2022-11-20T13:37:27;15.32;;;7.93;;
64682;SDS011;51107;47.652;19.016;2022-11-20T13:45:38;7.82;;;4.30;;
64682;SDS011;51107;47.652;19.016;2022-11-20T13:48:29;6.90;;;3.92;;
64682;SDS011;51107;47.652;19.016;2022-11-20T13:54:11;3.12;;;2.45;;
64682;SDS011;51107;47.652;19.016;2022-11-20T13:57:12;10.85;;;5.70;;
64682;SDS011;51107;47.652;19.016;2022-11-20T14:00:12;8.55;;;4.60;;
64682;SDS011;51107;47.652;19.016;2022-11-20T14:02:45;12.80;;;3.62;;
64682;SDS011;51107;47.652;19.016;2022-11-20T14:05:51;6.28;;;4.18;;
64682;SDS011;51107;47.652;19.016;2022-11-20T14:08:24;6.43;;;4.15;;
64682;SDS011;51107;47.652;19.016;2022-11-20T14:11:30;6.97;;;3.95;;
64682;SDS011;51107;47.652;19.016;2022-11-20T14:16:48;9.65;;;5.65;;
64682;SDS011;51107;47.652;19.016;2022-11-20T14:22:05;13.23;;;7.35;;
64682;SDS011;51107;47.652;19.016;2022-11-20T14:24:36;16.17;;;7.45;;
64682;SDS011;51107;47.652;19.016;2022-11-20T14:27:10;12.50;;;7.05;;
64682;SDS011;51107;47.652;19.016;2022-11-20T14:29:41;12.82;;;5.75;;
64682;SDS011;51107;47.652;19.016;2022-11-20T14:32:14;18.20;;;6.32;;
64682;SDS011;51107;47.652;19.016;2022-11-20T14:34:45;13.48;;;6.00;;
64682;SDS011;51107;47.652;19.016;2022-11-20T14:37:20;5.97;;;3.53;;
64682;SDS011;51107;47.652;19.016;2022-11-20T14:39:53;8.10;;;4.75;;
64682;SDS011;51107;47.652;19.016;2022-11-20T14:42:26;9.88;;;6.00;;
64682;SDS011;51107;47.652;19.016;2022-11-20T14:44:57;10.93;;;5.47;;
64682;SDS011;51107;47.652;19.016;2022-11-20T14:47:28;9.32;;;4.72;;
64682;SDS011;51107;47.652;19.016;2022-11-20T14:49:59;8.60;;;5.20;;
64682;SDS011;51107;47.652;19.016;2022-11-20T14:52:36;11.52;;;6.07;;
64682;SDS011;51107;47.652;19.016;2022-11-20T14:55:05;10.80;;;5.10;;
64682;SDS011;51107;47.652;19.016;2022-11-20T14:57:36;8.98;;;4.43;;
64682;SDS011;51107;47.652;19.016;2022-11-20T15:00:18;11.23;;;5.28;;
64682;SDS011;51107;47.652;19.016;2022-11-20T15:02:49;11.63;;;5.12;;
64682;SDS011;51107;47.652;19.016;2022-11-20T15:05:20;26.80;;;10.10;;
64682;SDS011;51107;47.652;19.016;2022-11-20T15:07:52;20.20;;;8.68;;
64682;SDS011;51107;47.652;19.016;2022-11-20T15:10:34;12.32;;;5.68;;
64682;SDS011;51107;47.652;19.016;2022-11-20T15:13:03;34.20;;;13.35;;
64682;SDS011;51107;47.652;19.016;2022-11-20T15:15:50;13.35;;;7.40;;
64682;SDS011;51107;47.652;19.016;2022-11-20T15:18:33;12.73;;;5.97;;
64682;SDS011;51107;47.652;19.016;2022-11-20T15:21:13;17.62;;;7.22;;
64682;SDS011;51107;47.652;19.016;2022-11-20T15:23:43;19.80;;;6.95;;
64682;SDS011;51107;47.652;19.016;2022-11-20T15:26:12;16.10;;;7.78;;
64682;SDS011;51107;47.652;19.016;2022-11-20T15:28:47;15.25;;;7.15;;
64682;SDS011;51107;47.652;19.016;2022-11-20T15:31:19;15.80;;;7.57;;
64682;SDS011;51107;47.652;19.016;2022-11-20T15:33:49;19.48;;;7.40;;
64682;SDS011;51107;47.652;19.016;2022-11-20T15:36:18;11.48;;;5.53;;
64682;SDS011;51107;47.652;19.016;2022-11-20T15:38:47;12.85;;;6.30;;
64682;SDS011;51107;47.652;19.016;2022-11-20T15:41:16;11.93;;;6.40;;
64682;SDS011;51107;47.652;19.016;2022-11-20T15:43:48;19.20;;;7.68;;
64682;SDS011;51107;47.652;19.016;2022-11-20T15:46:16;16.33;;;7.53;;
64682;SDS011;51107;47.652;19.016;2022-11-20T15:48:53;14.25;;;5.93;;
64682;SDS011;51107;47.652;19.016;2022-11-20T15:51:36;10.63;;;6.18;;
64682;SDS011;51107;47.652;19.016;2022-11-20T15:56:39;7.50;;;4.72;;
64682;SDS011;51107;47.652;19.016;2022-11-20T15:59:09;10.88;;;5.32;;
64682;SDS011;51107;47.652;19.016;2022-11-20T16:01:37;9.00;;;4.62;;
64682;SDS011;51107;47.652;19.016;2022-11-20T16:04:10;12.85;;;6.40;;
64682;SDS011;51107;47.652;19.016;2022-11-20T16:06:40;22.95;;;7.57;;
64682;SDS011;51107;47.652;19.016;2022-11-20T16:09:09;17.40;;;7.15;;
64682;SDS011;51107;47.652;19.016;2022-11-20T16:11:38;13.18;;;8.30;;
64682;SDS011;51107;47.652;19.016;2022-11-20T16:14:09;17.87;;;7.35;;
64682;SDS011;51107;47.652;19.016;2022-11-20T16:16:57;11.32;;;6.25;;
64682;SDS011;51107;47.652;19.016;2022-11-20T16:19:26;16.62;;;8.27;;
64682;SDS011;51107;47.652;19.016;2022-11-20T16:21:54;15.57;;;9.65;;
64682;SDS011;51107;47.652;19.016;2022-11-20T16:24:30;27.55;;;9.77;;
64682;SDS011;51107;47.652;19.016;2022-11-20T16:26:58;19.62;;;9.77;;
64682;SDS011;51107;47.652;19.016;2022-11-20T16:29:26;22.35;;;11.65;;
64682;SDS011;51107;47.652;19.016;2022-11-20T16:31:56;20.25;;;10.43;;
64682;SDS011;51107;47.652;19.016;2022-11-20T16:34:25;19.37;;;8.95;;
64682;SDS011;51107;47.652;19.016;2022-11-20T16:36:53;19.92;;;9.00;;
64682;SDS011;51107;47.652;19.016;2022-11-20T16:39:22;11.82;;;6.78;;
64682;SDS011;51107;47.652;19.016;2022-11-20T16:41:53;19.58;;;6.93;;
64682;SDS011;51107;47.652;19.016;2022-11-20T16:44:21;11.57;;;6.78;;
64682;SDS011;51107;47.652;19.016;2022-11-20T16:46:50;11.90;;;7.10;;
64682;SDS011;51107;47.652;19.016;2022-11-20T16:49:19;15.57;;;7.62;;
64682;SDS011;51107;47.652;19.016;2022-11-20T16:51:47;15.43;;;7.80;;
64682;SDS011;51107;47.652;19.016;2022-11-20T16:54:16;14.52;;;8.15;;
64682;SDS011;51107;47.652;19.016;2022-11-20T16:56:50;17.75;;;8.98;;
64682;SDS011;51107;47.652;19.016;2022-11-20T16:59:20;21.00;;;10.90;;
64682;SDS011;51107;47.652;19.016;2022-11-20T17:01:49;11.02;;;6.90;;
64682;SDS011;51107;47.652;19.016;2022-11-20T17:04:17;8.77;;;5.70;;
64682;SDS011;51107;47.652;19.016;2022-11-20T17:06:47;11.63;;;5.60;;
64682;SDS011;51107;47.652;19.016;2022-11-20T17:09:16;10.65;;;5.10;;
64682;SDS011;51107;47.652;19.016;2022-11-20T17:11:44;8.40;;;4.70;;